< < Back
Terminal Aerodrome Forecast


Current Version              Previous Versions:   1  2  3  4  5  6  7  8  9  

Terminal Aerodrome Forecast

288
FTUS42 KGSP 060106 AAC
TAFHKY
TAF AMD
KHKY 060106Z 0601/0624 01010G18KT P6SM OVC040
     FM060600 01007KT P6SM BKN050
     FM060900 01005KT P6SM SCT250
     FM061900 10003KT P6SM FEW250
     FM062000 17003KT P6SM FEW250=



Latest METAR

694
SAUS70 KWBC 070400 RRI
MTRHKY
METAR KHKY 070353Z AUTO 00000KT 10SM CLR M01/M09 A3039 RMK AO2 SLP293
T10061094


USA.gov is the U.S. government's official web portal to all federal, state and local government web resources and services.